Time;durP1;ratioP1;P1;durP2;ratioP2;P2;SDS_P1;SDS_P2;PMS_P1;PMS_P2;Temp;Humidity;BMP_temperature;BMP_pressure;BME280_temperature;BME280_humidity;BME280_pressure;Samples;Min_cycle;Max_cycle;Signal;HPM_P1;HPM_P2
2023/10/13 00:04:46;;;;;;;47.63;29.90;;;;;;;15.39;nan;100924.28;10313448;28;20056;-82
2023/10/13 00:09:46;;;;;;;53.25;28.67;;;;;;;15.40;nan;100915.53;10300361;28;20045;-81
2023/10/13 00:14:51;;;;;;;58.88;33.17;;;;;;;15.44;nan;100912.97;10309461;28;20049;-81
2023/10/13 00:19:54;;;;;;;47.38;30.50;;;;;;;15.42;nan;100905.00;10310975;28;20172;-81
2023/10/13 00:24:58;;;;;;;45.33;28.75;;;;;;;15.43;nan;100904.16;10307914;28;20042;-81
2023/10/13 00:35:25;;;;;;;55.78;30.73;;;;;;;15.51;nan;100893.84;10312181;28;20140;-81
2023/10/13 00:45:31;;;;;;;47.35;30.83;;;;;;;15.51;nan;100885.91;10312658;28;20049;-80
2023/10/13 00:50:36;;;;;;;44.08;30.38;;;;;;;15.55;nan;100871.97;10308734;28;20100;-82
2023/10/13 00:55:41;;;;;;;41.10;28.00;;;;;;;15.56;nan;100879.03;10312477;28;20125;-82
2023/10/13 01:00:47;;;;;;;45.60;27.65;;;;;;;15.50;nan;100871.81;10310408;28;20045;-83
2023/10/13 01:05:53;;;;;;;53.78;30.88;;;;;;;15.53;nan;100864.00;10337905;28;20053;-83
2023/10/13 01:10:54;;;;;;;56.42;35.20;;;;;;;15.60;nan;100859.78;10326654;28;20498;-81
2023/10/13 01:15:54;;;;;;;48.72;30.55;;;;;;;15.57;nan;100857.94;10312846;28;20042;-81
2023/10/13 01:20:58;;;;;;;44.15;30.00;;;;;;;15.59;nan;100847.47;10330418;28;20064;-81
2023/10/13 01:26:04;;;;;;;54.53;29.92;;;;;;;15.54;nan;100838.53;10324569;28;20046;-81
2023/10/13 01:31:08;;;;;;;39.53;26.60;;;;;;;15.51;nan;100831.41;10319527;28;20038;-80
2023/10/13 01:36:12;;;;;;;52.92;29.88;;;;;;;15.52;nan;100820.00;10330078;28;21522;-80
2023/10/13 01:41:13;;;;;;;40.72;28.35;;;;;;;15.45;nan;100804.88;10304724;28;20050;-80
2023/10/13 01:46:15;;;;;;;47.55;28.25;;;;;;;15.39;nan;100807.34;10320996;28;20052;-81
2023/10/13 01:51:15;;;;;;;51.93;27.30;;;;;;;15.36;nan;100804.63;10348170;28;20072;-81
2023/10/13 01:56:16;;;;;;;39.78;27.20;;;;;;;15.40;nan;100798.56;10314212;28;20288;-81
2023/10/13 02:01:26;;;;;;;51.38;29.25;;;;;;;15.41;nan;100793.38;10318985;28;20057;-81
2023/10/13 02:06:32;;;;;;;45.25;25.48;;;;;;;15.40;nan;100783.66;10319334;28;20042;-81
2023/10/13 02:11:32;;;;;;;44.80;29.25;;;;;;;15.44;nan;100779.34;10301195;28;20501;-81
2023/10/13 02:16:33;;;;;;;47.90;29.10;;;;;;;15.45;nan;100769.72;10329270;28;20038;-82
2023/10/13 02:21:38;;;;;;;58.22;31.90;;;;;;;15.43;nan;100764.38;10315315;28;20933;-82
2023/10/13 02:26:40;;;;;;;40.63;27.95;;;;;;;15.45;nan;100756.53;10329120;28;20604;-82
2023/10/13 02:31:42;;;;;;;52.63;28.83;;;;;;;15.50;nan;100745.22;10303708;28;20046;-82
2023/10/13 02:36:48;;;;;;;49.67;30.85;;;;;;;15.56;nan;100750.66;10315749;28;20086;-82
2023/10/13 02:41:49;;;;;;;47.17;28.30;;;;;;;15.56;nan;100728.69;10318687;28;20042;-81
2023/10/13 02:46:50;;;;;;;52.88;29.35;;;;;;;15.63;nan;100704.22;10314123;28;20536;-81
2023/10/13 02:51:52;;;;;;;41.33;27.35;;;;;;;15.63;nan;100709.50;10315665;28;20126;-81
2023/10/13 02:57:03;;;;;;;40.88;25.83;;;;;;;15.65;nan;100707.81;10315833;28;20125;-81
2023/10/13 03:07:23;;;;;;;49.25;29.38;;;;;;;15.67;nan;100684.06;10355729;28;20045;-82
2023/10/13 03:12:24;;;;;;;53.88;30.48;;;;;;;15.64;nan;100678.72;10372487;28;20120;-81
2023/10/13 03:17:35;;;;;;;54.28;28.17;;;;;;;15.63;nan;100672.56;10353361;28;20042;-81
2023/10/13 03:22:36;;;;;;;54.65;32.10;;;;;;;15.68;nan;100654.22;10359183;28;20104;-82
2023/10/13 03:28:01;;;;;;;50.45;29.85;;;;;;;15.63;nan;100647.94;10357652;28;20046;-83
2023/10/13 03:33:07;;;;;;;51.55;28.60;;;;;;;15.63;nan;100638.28;10330257;28;20486;-82
2023/10/13 03:38:19;;;;;;;51.22;32.58;;;;;;;15.67;nan;100640.13;10329371;28;20042;-82
2023/10/13 03:43:23;;;;;;;48.92;30.83;;;;;;;15.69;nan;100626.97;10341602;28;20045;-82
2023/10/13 03:53:27;;;;;;;53.60;32.20;;;;;;;15.80;nan;100619.31;10314161;28;20500;-82
2023/10/13 03:58:29;;;;;;;54.55;31.27;;;;;;;15.83;nan;100600.91;10317580;28;20050;-81
2023/10/13 04:03:36;;;;;;;50.63;31.85;;;;;;;15.87;nan;100602.78;10344455;28;20069;-85
2023/10/13 04:08:49;;;;;;;61.25;37.15;;;;;;;15.87;nan;100586.97;10355976;28;20529;-81
2023/10/13 04:14:21;;;;;;;52.90;32.15;;;;;;;15.93;nan;100583.53;10353340;28;20049;-81
2023/10/13 04:19:19;;;;;;;48.13;28.48;;;;;;;15.92;nan;100577.38;10336663;28;20046;-82
2023/10/13 04:34:51;;;;;;;51.10;27.95;;;;;;;15.93;nan;100446.31;10330149;28;20613;-83
2023/10/13 04:39:57;;;;;;;48.00;26.58;;;;;;;15.98;nan;100440.28;10348969;28;20042;-84
2023/10/13 04:45:15;;;;;;;43.53;27.67;;;;;;;16.01;nan;100442.06;10370992;28;20042;-79
2023/10/13 04:50:34;;;;;;;39.47;26.58;;;;;;;16.03;nan;100426.28;10366786;28;20076;-82
2023/10/13 06:31:21;;;;;;;24.27;15.27;;;;;;;16.11;nan;100321.72;10360314;28;20577;-83
2023/10/13 06:36:22;;;;;;;24.40;14.30;;;;;;;16.20;nan;100327.13;10356217;28;20210;-80
2023/10/13 06:41:30;;;;;;;29.67;16.17;;;;;;;16.28;nan;100329.88;10375060;28;20141;-78
2023/10/13 06:46:33;;;;;;;28.38;15.65;;;;;;;16.40;nan;100319.50;10359200;28;20041;-79
2023/10/13 06:51:37;;;;;;;26.75;14.57;;;;;;;16.50;nan;100317.00;10360581;28;20474;-80
2023/10/13 06:56:39;;;;;;;27.35;14.98;;;;;;;16.72;nan;100313.81;10357408;28;20049;-79
2023/10/13 07:01:41;;;;;;;25.23;14.13;;;;;;;16.93;nan;100293.81;10360760;28;20406;-78
2023/10/13 07:06:47;;;;;;;28.30;15.63;;;;;;;17.05;nan;100292.22;10357241;28;20475;-78
2023/10/13 07:11:52;;;;;;;34.15;16.00;;;;;;;17.12;nan;100289.69;10326467;28;20040;-78
2023/10/13 07:16:59;;;;;;;28.23;13.38;;;;;;;17.21;nan;100286.22;10370263;28;20047;-78
2023/10/13 07:22:19;;;;;;;23.02;13.35;;;;;;;17.26;nan;100283.66;10340156;28;20397;-78
2023/10/13 07:27:25;;;;;;;23.42;12.98;;;;;;;17.30;nan;100273.09;10355460;28;20119;-78
2023/10/13 07:32:26;;;;;;;23.23;12.82;;;;;;;17.35;nan;100270.53;10358414;28;20038;-77
2023/10/13 07:37:28;;;;;;;20.23;10.48;;;;;;;17.35;nan;100253.75;10359475;28;20490;-79
2023/10/13 07:42:38;;;;;;;24.45;10.57;;;;;;;17.28;nan;100252.81;10355886;28;20502;-79
2023/10/13 07:47:39;;;;;;;24.77;11.27;;;;;;;17.25;nan;100251.00;10359760;28;20076;-78
2023/10/13 07:52:58;;;;;;;19.60;10.07;;;;;;;17.50;nan;100245.09;10356806;28;20123;-78
2023/10/13 07:57:59;;;;;;;14.88;9.55;;;;;;;17.72;nan;100233.81;10343313;28;20046;-78
2023/10/13 08:03:09;;;;;;;24.87;10.17;;;;;;;17.85;nan;100242.72;10358337;28;20070;-78
2023/10/13 08:08:15;;;;;;;20.27;10.05;;;;;;;18.04;nan;100222.63;10358493;28;20120;-77
2023/10/13 08:13:18;;;;;;;21.08;8.75;;;;;;;18.22;nan;100193.59;10357284;28;20038;-78
2023/10/13 08:18:30;;;;;;;26.10;8.55;;;;;;;18.89;nan;100150.56;10360932;28;20042;-78
2023/10/13 08:23:57;;;;;;;18.25;8.52;;;;;;;19.02;nan;100102.91;10360920;28;20097;-85
2023/10/13 08:28:55;;;;;;;18.25;6.75;;;;;;;18.94;nan;100092.22;10367637;28;20045;-82
2023/10/13 08:34:06;;;;;;;17.92;8.88;;;;;;;18.97;nan;100109.97;10370977;28;20044;-78
2023/10/13 08:39:57;;;;;;;19.63;7.28;;;;;;;19.22;nan;100118.81;10369249;28;20472;-77
2023/10/13 08:44:33;;;;;;;16.92;7.38;;;;;;;19.57;nan;100125.00;10366719;28;20052;-77
2023/10/13 08:49:39;;;;;;;15.17;7.03;;;;;;;19.49;nan;100141.81;10332557;28;20125;-79
2023/10/13 08:54:45;;;;;;;14.23;7.90;;;;;;;19.69;nan;100147.97;10357598;28;20038;-80
2023/10/13 08:59:55;;;;;;;14.27;6.38;;;;;;;19.50;nan;100154.19;10366035;28;20041;-81
2023/10/13 09:05:09;;;;;;;16.38;7.80;;;;;;;19.60;nan;100144.44;10366955;28;20512;-79
2023/10/13 09:10:32;;;;;;;12.23;5.53;;;;;;;19.77;nan;100132.91;10362233;28;20050;-80
2023/10/13 09:26:25;;;;;;;11.68;6.93;;;;;;;19.64;nan;100153.28;10368658;28;20088;-79
2023/10/13 09:31:32;;;;;;;17.65;7.38;;;;;;;19.73;nan;100168.31;10372939;28;20442;-79
2023/10/13 09:36:35;;;;;;;12.93;7.35;;;;;;;19.84;nan;100169.16;10366652;28;20050;-80
2023/10/13 09:41:37;;;;;;;12.52;7.47;;;;;;;19.79;nan;100155.91;10330667;28;20128;-78
2023/10/13 09:46:41;;;;;;;16.98;6.70;;;;;;;19.78;nan;100151.50;10344371;28;20064;-77
2023/10/13 09:51:45;;;;;;;16.35;7.00;;;;;;;20.29;nan;100126.59;10363633;28;20821;-78
2023/10/13 09:56:55;;;;;;;18.60;8.55;;;;;;;20.82;nan;100134.31;10382768;28;20095;-78
2023/10/13 10:02:00;;;;;;;18.23;8.10;;;;;;;21.19;nan;100149.13;10362172;28;20030;-78
2023/10/13 10:07:00;;;;;;;20.23;7.38;;;;;;;21.25;nan;100170.38;10369387;28;20044;-79
2023/10/13 10:12:25;;;;;;;11.57;6.90;;;;;;;21.99;nan;100174.19;10363166;28;20045;-79
2023/10/13 10:17:29;;;;;;;13.50;7.30;;;;;;;22.12;nan;100157.16;10385883;28;20084;-80
2023/10/13 10:22:36;;;;;;;17.92;7.40;;;;;;;21.92;nan;100151.19;10360974;28;20050;-80
2023/10/13 10:27:36;;;;;;;16.83;8.32;;;;;;;22.56;nan;100159.34;10335362;28;20042;-80
2023/10/13 10:32:37;;;;;;;17.37;8.67;;;;;;;24.22;nan;100186.06;10359473;28;20125;-79
2023/10/13 10:37:39;;;;;;;27.27;8.20;;;;;;;24.62;nan;100169.19;10366124;28;20046;-80
2023/10/13 10:42:40;;;;;;;14.70;7.90;;;;;;;24.43;nan;100175.84;10351358;28;20053;-82
2023/10/13 10:47:47;;;;;;;28.90;7.63;;;;;;;23.78;nan;100151.22;10343428;28;20061;-80
2023/10/13 10:52:48;;;;;;;21.75;8.90;;;;;;;24.40;nan;100158.06;10357674;28;20037;-80
2023/10/13 10:57:58;;;;;;;18.67;8.30;;;;;;;25.00;nan;100182.66;10368885;28;20121;-83
2023/10/13 11:02:59;;;;;;;15.13;7.97;;;;;;;24.28;nan;100169.03;10326162;28;20089;-82
2023/10/13 11:07:59;;;;;;;12.03;7.40;;;;;;;24.18;nan;100146.94;10361608;28;20041;-84
2023/10/13 11:13:16;;;;;;;11.10;8.47;;;;;;;23.72;nan;100157.56;10342976;28;20587;-86
2023/10/13 11:18:20;;;;;;;22.58;6.88;;;;;;;23.06;nan;100147.97;10344387;28;20428;-83
2023/10/13 11:23:25;;;;;;;22.05;7.53;;;;;;;24.11;nan;100164.00;10371980;28;20121;-81
2023/10/13 11:28:29;;;;;;;15.55;6.90;;;;;;;24.30;nan;100184.09;10369181;28;20038;-80
2023/10/13 11:33:29;;;;;;;24.45;10.13;;;;;;;25.97;nan;100199.06;10362647;28;20037;-81
2023/10/13 11:38:42;;;;;;;14.03;7.17;;;;;;;26.96;nan;100234.72;10332365;28;20038;-82
2023/10/13 11:48:46;;;;;;;21.08;7.43;;;;;;;24.40;nan;100182.13;10334104;28;20046;-79
2023/10/13 11:53:51;;;;;;;29.25;8.38;;;;;;;23.12;nan;100154.06;10323502;28;20037;-81
2023/10/13 11:58:52;;;;;;;20.63;6.65;;;;;;;22.77;nan;100126.16;10353668;28;20037;-81
2023/10/13 12:14:17;;;;;;;22.48;8.32;;;;;;;22.92;nan;100130.38;10353382;28;20444;-81
2023/10/13 12:19:24;;;;;;;16.70;6.32;;;;;;;22.97;nan;100144.53;10316962;28;20044;-80
2023/10/13 12:29:36;;;;;;;32.85;9.98;;;;;;;22.42;nan;100143.47;10330601;28;20041;-82
2023/10/13 12:50:44;;;;;;;21.30;8.45;;;;;;;24.85;nan;100146.41;10331475;28;20505;-80
2023/10/13 12:55:45;;;;;;;25.47;8.37;;;;;;;26.66;nan;100177.47;10358377;28;20117;-80
2023/10/13 13:00:48;;;;;;;24.60;7.83;;;;;;;25.89;nan;100180.47;10380005;28;20069;-82
2023/10/13 13:05:49;;;;;;;15.85;8.82;;;;;;;26.58;nan;100204.50;10373345;28;20048;-82
2023/10/13 13:10:50;;;;;;;17.17;6.70;;;;;;;25.61;nan;100199.97;10358797;28;20057;-81
2023/10/13 13:15:51;;;;;;;20.13;8.48;;;;;;;23.92;nan;100187.50;10360779;28;20048;-81
2023/10/13 13:20:55;;;;;;;22.02;8.48;;;;;;;23.08;nan;100176.38;10363735;28;20048;-82
2023/10/13 13:25:56;;;;;;;23.20;7.13;;;;;;;22.33;nan;100147.16;10392123;28;20249;-83
2023/10/13 13:30:57;;;;;;;16.50;7.83;;;;;;;22.08;nan;100143.88;10362847;28;20494;-79
2023/10/13 13:35:59;;;;;;;23.40;8.27;;;;;;;22.07;nan;100159.00;10365538;28;20087;-81
2023/10/13 13:41:02;;;;;;;25.08;10.07;;;;;;;21.94;nan;100142.25;10401546;28;20038;-80
2023/10/13 13:46:08;;;;;;;24.95;7.40;;;;;;;21.79;nan;100118.44;10363598;28;20034;-79
2023/10/13 13:51:15;;;;;;;19.95;9.07;;;;;;;21.65;nan;100111.50;10364788;28;20437;-81
2023/10/13 13:56:18;;;;;;;24.15;7.07;;;;;;;21.39;nan;100122.38;10369952;28;20080;-81
2023/10/13 14:01:21;;;;;;;18.33;7.00;;;;;;;21.14;nan;100103.94;10395394;28;20045;-80
2023/10/13 14:06:27;;;;;;;15.45;7.78;;;;;;;21.05;nan;100106.69;10362322;28;20061;-81
2023/10/13 14:16:45;;;;;;;18.98;6.25;;;;;;;21.02;nan;100082.78;10392872;28;20036;-81
2023/10/13 14:21:53;;;;;;;16.65;6.88;;;;;;;20.95;nan;100081.91;10369201;28;20085;-81
2023/10/13 14:27:08;;;;;;;11.27;5.95;;;;;;;20.93;nan;100081.94;10349867;28;20030;-80
2023/10/13 14:32:12;;;;;;;14.68;5.70;;;;;;;20.93;nan;100089.03;10359207;28;20129;-81
2023/10/13 14:37:12;;;;;;;13.85;7.82;;;;;;;20.87;nan;100086.41;10337178;28;20117;-82
2023/10/13 14:42:16;;;;;;;22.63;7.73;;;;;;;20.81;nan;100082.91;10356845;28;20100;-83
2023/10/13 14:47:24;;;;;;;19.20;8.07;;;;;;;20.73;nan;100075.84;10354700;28;20050;-82
2023/10/13 14:52:24;;;;;;;15.32;7.57;;;;;;;20.72;nan;100090.91;10377874;28;20120;-81
2023/10/13 14:57:25;;;;;;;14.57;7.27;;;;;;;20.57;nan;100072.41;10361241;28;20050;-80
2023/10/13 15:02:26;;;;;;;18.13;8.30;;;;;;;20.53;nan;100080.41;10370828;28;20067;-82
2023/10/13 15:07:27;;;;;;;17.63;7.00;;;;;;;20.58;nan;100068.84;10383672;28;20129;-82
2023/10/13 15:12:28;;;;;;;11.98;7.63;;;;;;;20.55;nan;100077.75;10379067;28;20045;-82
2023/10/13 15:17:29;;;;;;;18.57;6.83;;;;;;;20.53;nan;100072.41;10328204;28;20049;-82
2023/10/13 15:22:29;;;;;;;10.93;6.87;;;;;;;20.48;nan;100076.88;10350014;28;20161;-83
2023/10/13 15:27:30;;;;;;;15.97;7.17;;;;;;;20.34;nan;100060.13;10352685;28;20160;-82
2023/10/13 15:32:43;;;;;;;;;;;;;;;20.08;nan;100043.44;10338973;28;20071;-82
2023/10/13 15:37:47;;;;;;;18.10;6.70;;;;;;;19.94;nan;100046.16;10357173;28;20084;-82
2023/10/13 15:42:47;;;;;;;16.98;7.60;;;;;;;19.94;nan;100046.16;10337474;28;20042;-83
2023/10/13 15:47:48;;;;;;;17.13;8.10;;;;;;;19.86;nan;100045.25;10348549;28;20129;-81
2023/10/13 15:52:48;;;;;;;17.50;7.30;;;;;;;19.70;nan;100032.94;10277404;28;20031;-82
2023/10/13 15:57:52;;;;;;;10.93;5.20;;;;;;;19.59;nan;100022.38;10339760;28;20042;-80
2023/10/13 16:02:54;;;;;;;18.88;6.82;;;;;;;19.54;nan;100013.53;10350704;28;20453;-82
2023/10/13 16:07:54;;;;;;;18.88;7.88;;;;;;;19.54;nan;100016.19;10319187;28;20416;-80
2023/10/13 16:12:57;;;;;;;15.17;7.83;;;;;;;19.42;nan;99999.41;10339428;28;20088;-80
2023/10/13 16:17:58;;;;;;;17.30;7.18;;;;;;;19.32;nan;100001.19;10353750;28;20037;-81
2023/10/13 16:22:59;;;;;;;14.25;6.65;;;;;;;19.22;nan;100003.00;10340005;28;20081;-80
2023/10/13 16:27:59;;;;;;;18.27;6.43;;;;;;;18.98;nan;99995.06;10362507;28;20041;-81
2023/10/13 16:33:00;;;;;;;12.80;6.17;;;;;;;18.70;nan;99990.59;10353018;28;20131;-80
2023/10/13 16:38:06;;;;;;;25.07;7.43;;;;;;;18.24;nan;99961.44;10330788;28;20509;-81
2023/10/13 16:43:09;;;;;;;10.30;6.38;;;;;;;18.01;nan;99941.06;10343868;28;20045;-81
2023/10/13 16:48:13;;;;;;;18.15;5.95;;;;;;;18.01;nan;99925.19;10334920;28;20064;-80
2023/10/13 16:53:13;;;;;;;12.65;6.90;;;;;;;17.86;nan;99902.22;10398874;28;20458;-81
2023/10/13 16:58:14;;;;;;;16.35;7.75;;;;;;;17.73;nan;99881.00;10323879;28;20044;-82
2023/10/13 17:03:15;;;;;;;12.45;6.40;;;;;;;17.66;nan;99880.97;10314047;28;20141;-81
2023/10/13 17:08:15;;;;;;;13.10;6.75;;;;;;;17.76;nan;99882.75;10355250;28;20427;-78
2023/10/13 17:13:19;;;;;;;19.00;6.28;;;;;;;17.82;nan;99890.72;10366719;28;20072;-80
2023/10/13 17:18:20;;;;;;;11.98;7.15;;;;;;;17.84;nan;99885.44;10370716;28;20068;-81
2023/10/13 17:23:21;;;;;;;16.95;7.15;;;;;;;17.71;nan;99887.16;10359410;28;20140;-79
2023/10/13 17:28:21;;;;;;;11.33;6.60;;;;;;;17.41;nan;99876.50;10371220;28;20030;-78
2023/10/13 17:33:24;;;;;;;16.00;8.30;;;;;;;17.26;nan;99855.28;10352159;28;20136;-80
2023/10/13 17:38:24;;;;;;;15.40;7.15;;;;;;;17.24;nan;99834.09;10376225;28;20042;-81
2023/10/13 17:43:25;;;;;;;18.45;9.50;;;;;;;17.37;nan;99835.03;10406965;28;20084;-79
2023/10/13 17:48:26;;;;;;;20.35;6.82;;;;;;;17.14;nan;99834.94;10356915;28;20481;-80
2023/10/13 17:53:34;;;;;;;15.80;7.45;;;;;;;17.06;nan;99834.03;10363537;28;20500;-78
2023/10/13 17:58:34;;;;;;;16.77;8.05;;;;;;;17.03;nan;99821.69;10361484;28;20088;-79
2023/10/13 18:03:35;;;;;;;15.23;7.50;;;;;;;17.10;nan;99807.63;10374577;28;20579;-80
2023/10/13 18:08:37;;;;;;;14.43;8.07;;;;;;;17.14;nan;99798.84;10392359;28;20073;-79
2023/10/13 18:13:38;;;;;;;;;;;;;;;17.19;nan;99804.13;10376094;28;20429;-79
2023/10/13 18:18:39;;;;;;;18.40;8.23;;;;;;;17.32;nan;99797.13;10419898;28;19928;-79
2023/10/13 18:23:40;;;;;;;16.27;7.63;;;;;;;17.43;nan;99778.63;10381303;28;20482;-81
2023/10/13 18:28:41;;;;;;;17.77;8.57;;;;;;;17.34;nan;99770.66;10372101;28;20175;-80
2023/10/13 18:33:41;;;;;;;18.38;9.77;;;;;;;17.35;nan;99778.63;10355213;28;20096;-82
2023/10/13 18:38:43;;;;;;;15.55;7.45;;;;;;;17.51;nan;99763.66;10394139;28;20113;-81
2023/10/13 18:43:43;;;;;;;16.27;7.70;;;;;;;17.79;nan;99753.09;10343043;28;20046;-81
2023/10/13 18:48:44;;;;;;;18.98;8.55;;;;;;;18.11;nan;99746.06;10360048;28;20116;-81
2023/10/13 18:53:46;;;;;;;22.27;8.73;;;;;;;18.22;nan;99716.91;10364856;28;20049;-82
2023/10/13 18:59:02;;;;;;;16.77;7.70;;;;;;;18.38;nan;99736.31;10366741;28;20045;-82
2023/10/13 19:04:11;;;;;;;19.55;8.07;;;;;;;18.57;nan;99727.44;10349637;28;20046;-81
2023/10/13 19:09:12;;;;;;;16.00;8.20;;;;;;;18.63;nan;99724.75;10348147;28;20078;-81
2023/10/13 19:14:25;;;;;;;28.85;9.20;;;;;;;18.67;nan;99738.00;10350070;28;20155;-81
2023/10/13 19:19:26;;;;;;;20.33;10.20;;;;;;;18.22;nan;99743.41;10352973;28;20060;-82
2023/10/13 19:24:28;;;;;;;24.20;8.67;;;;;;;17.42;nan;99796.28;10300502;28;20169;-82
2023/10/13 19:29:28;;;;;;;;;;;;;;;16.84;nan;99837.44;10355820;28;20043;-83
2023/10/13 19:34:28;;;;;;;21.43;9.00;;;;;;;16.41;nan;99869.72;10315161;28;20328;-82
2023/10/13 19:39:31;;;;;;;20.85;10.52;;;;;;;16.24;nan;99863.41;10319793;28;20332;-81
2023/10/13 19:44:33;;;;;;;18.00;11.70;;;;;;;16.16;nan;99866.00;10315579;28;20483;-81
2023/10/13 19:49:37;;;;;;;22.58;13.15;;;;;;;16.18;nan;99858.09;10354957;28;20041;-80
2023/10/13 19:54:38;;;;;;;19.73;11.05;;;;;;;16.22;nan;99846.69;10335163;28;20489;-79
2023/10/13 19:59:41;;;;;;;23.57;12.27;;;;;;;16.26;nan;99830.00;10355379;28;20091;-78
2023/10/13 20:04:41;;;;;;;;;;;;;;;16.37;nan;99791.34;10318483;28;20073;-79
2023/10/13 20:09:42;;;;;;;24.70;11.63;;;;;;;16.31;nan;99783.38;10389118;28;19921;-81
2023/10/13 20:14:43;;;;;;;21.52;11.52;;;;;;;16.34;nan;99774.63;10367242;28;20044;-80
2023/10/13 20:19:43;;;;;;;19.52;10.98;;;;;;;16.26;nan;99786.00;10376433;28;20073;-79
2023/10/13 20:24:44;;;;;;;29.92;11.32;;;;;;;16.20;nan;99764.84;10352294;28;20065;-79
2023/10/13 20:29:45;;;;;;;18.33;11.57;;;;;;;16.08;nan;99763.00;10363710;28;20391;-79
2023/10/13 20:34:49;;;;;;;22.13;11.88;;;;;;;16.00;nan;99754.13;10365224;28;20037;-79
2023/10/13 20:39:49;;;;;;;23.15;13.05;;;;;;;15.96;nan;99755.88;10356730;28;20095;-78
2023/10/13 20:44:50;;;;;;;19.30;12.63;;;;;;;15.91;nan;99748.78;10343292;28;20099;-78
2023/10/13 20:49:52;;;;;;;21.43;15.17;;;;;;;15.83;nan;99739.00;10341461;28;20042;-80
2023/10/13 20:54:53;;;;;;;29.38;14.13;;;;;;;15.78;nan;99732.81;10357082;28;20046;-78
2023/10/13 20:59:55;;;;;;;26.58;13.75;;;;;;;15.71;nan;99717.81;10353388;28;20046;-78
2023/10/13 21:04:56;;;;;;;23.27;11.98;;;;;;;15.68;nan;99733.59;10358086;28;20133;-78
2023/10/13 21:09:56;;;;;;;23.70;14.75;;;;;;;15.62;nan;99739.72;10370347;28;20413;-78
2023/10/13 21:14:57;;;;;;;18.23;12.43;;;;;;;15.54;nan;99730.88;10350193;28;20035;-78
2023/10/13 21:19:57;;;;;;;20.65;11.40;;;;;;;15.64;nan;99730.09;10329282;28;20041;-79
2023/10/13 21:24:59;;;;;;;19.20;11.73;;;;;;;15.61;nan;99716.88;10365752;28;20042;-79
2023/10/13 21:30:00;;;;;;;28.08;13.20;;;;;;;15.62;nan;99699.28;10354785;28;20053;-80
2023/10/13 21:35:01;;;;;;;28.77;16.38;;;;;;;15.83;nan;99696.81;10362271;28;20050;-79
2023/10/13 21:40:02;;;;;;;25.95;11.35;;;;;;;16.12;nan;99687.38;10372318;28;20049;-79
2023/10/13 21:45:03;;;;;;;21.15;11.48;;;;;;;16.23;nan;99659.28;10373912;28;20037;-79
2023/10/13 21:50:04;;;;;;;24.20;10.63;;;;;;;16.40;nan;99627.66;10375638;28;20046;-79
2023/10/13 21:55:05;;;;;;;20.20;10.55;;;;;;;16.37;nan;99603.88;10362373;28;20489;-80
2023/10/13 22:00:20;;;;;;;17.60;10.80;;;;;;;16.35;nan;99597.72;10363988;28;20493;-80
2023/10/13 22:05:22;;;;;;;19.52;10.38;;;;;;;16.54;nan;99574.00;10333444;28;20037;-80
2023/10/13 22:10:24;;;;;;;19.50;9.25;;;;;;;16.50;nan;99564.31;10345829;28;20095;-79
2023/10/13 22:15:24;;;;;;;21.63;10.77;;;;;;;16.69;nan;99565.25;10362474;28;20037;-79
2023/10/13 22:20:25;;;;;;;19.38;9.52;;;;;;;16.94;nan;99557.34;10354799;28;20049;-80
2023/10/13 22:25:25;;;;;;;20.45;10.25;;;;;;;17.08;nan;99552.09;10361578;28;20046;-79
2023/10/13 22:30:29;;;;;;;34.58;10.73;;;;;;;17.19;nan;99550.31;10356139;28;20160;-80
2023/10/13 22:35:29;;;;;;;14.98;9.25;;;;;;;17.34;nan;99560.03;10364968;28;20057;-80
2023/10/13 22:40:30;;;;;;;21.05;10.80;;;;;;;17.35;nan;99555.59;10381623;28;20124;-80
2023/10/13 22:45:31;;;;;;;24.50;11.40;;;;;;;17.24;nan;99569.72;10361876;28;20066;-81
2023/10/13 22:50:45;;;;;;;23.25;11.45;;;;;;;16.96;nan;99598.75;10351025;28;20053;-82
2023/10/13 22:55:46;;;;;;;18.38;10.73;;;;;;;16.74;nan;99609.28;10371023;28;20091;-80
2023/10/13 23:00:49;;;;;;;22.17;9.80;;;;;;;16.78;nan;99599.59;10347895;28;20111;-81
2023/10/13 23:05:53;;;;;;;16.00;9.32;;;;;;;17.07;nan;99548.59;10378362;28;20765;-80
2023/10/13 23:10:53;;;;;;;18.25;9.40;;;;;;;17.09;nan;99551.22;10369698;28;20069;-81
2023/10/13 23:15:54;;;;;;;29.83;9.98;;;;;;;17.05;nan;99557.38;10360031;28;20064;-80
2023/10/13 23:20:54;;;;;;;18.45;9.30;;;;;;;17.23;nan;99565.31;10326313;28;20033;-81
2023/10/13 23:25:55;;;;;;;16.98;6.97;;;;;;;17.37;nan;99575.00;10379809;28;20087;-81
2023/10/13 23:30:55;;;;;;;17.27;8.18;;;;;;;17.58;nan;99580.25;10364051;28;20046;-81
2023/10/13 23:35:56;;;;;;;14.45;6.93;;;;;;;17.58;nan;99609.34;10342806;28;20038;-78
2023/10/13 23:40:56;;;;;;;15.80;5.60;;;;;;;17.76;nan;99626.97;10381604;28;20151;-79
2023/10/13 23:46:10;;;;;;;11.52;5.10;;;;;;;17.68;nan;99620.81;10365915;28;20111;-79
2023/10/13 23:51:13;;;;;;;8.85;5.22;;;;;;;17.47;nan;99627.00;10340186;28;20034;-83
2023/10/13 23:56:15;;;;;;;11.38;4.78;;;;;;;17.21;nan;99624.38;10358172;28;20398;-81
